Fernando Martinez

Olheiro-Chefe - Atletico Venezuela
2 Set 2027
Quinta-feira
Processo

Personalidade

Adaptabilidade (16) Ambição (8) Controvérsia (7) Lealdade (13) Pressão (8) Profissionalismo (9) Espírito Esportivo (18) Temperamento (17)

Perfil

Estilo de Treinamento Democrático
Licença Continental B
Determinação 8
Gestão de Pessoas 10
Motivação 3
Disciplina 10
Satisfação no Trabalho
100%
Fadiga
0%
Função Olheiro-Chefe
Salário 37.5K p/s
Contrato 14.03.2030

Desempenho

Comportamento Bom
Eficácia do Treinamento
33%
Desenvolvimento do Jogador
45%
Prevenção de Lesões
25%
Implementação Tática
20%

Eventos Recentes

Participou de uma reunião de recrutamento 7d atrás
Recomendou um alvo de transferência 7d atrás
Participou de uma reunião de recrutamento 14d atrás
Recomendou um alvo de transferência 14d atrás
Participou de uma reunião de recrutamento 21d atrás
Recomendou um alvo de transferência 21d atrás
Participou de uma reunião de recrutamento 28d atrás
Recomendou um alvo de transferência 28d atrás

Monitorando agora

125
Jogador Clube Status Habilidade Confiança Observado Última observação Último voto
Naygers Flores Deportivo La Guaira Negociando 86 / 86 69% 1 01.06.2027 Aprovar
Sergio Carrasco Cobresal Ativo 98 / 96 40% 1 01.06.2027 -
Sebastián Cocimano Nueva Chicago Ativo 108 / 110 40% 1 01.06.2027 -
Alexander Díaz Deportivo Riestra Ativo 114 / 116 40% 1 01.06.2027 -
Louis Appéré Cambridge United Ativo 93 / 101 40% 1 27.11.2026 -
Matty Stevens AFC Wimbledon Ativo 105 / 96 40% 1 27.11.2026 -
Lee Bonis Chesterfield Ativo 95 / 116 40% 2 26.11.2026 -
Jonás Luna Santa Clara Ativo 118 / 108 40% 1 26.11.2026 -
Edarlyn Reyes Arsenal Tula Ativo 120 / 120 40% 4 25.11.2026 -
Vyacheslav Grulev Nizhniy Novgorod Ativo 107 / 112 40% 3 25.11.2026 -
Anderson Gutiérrez Chelyabinsk Ativo 96 / 97 40% 1 25.11.2026 -
Nathan Ordaz Metalist Ativo 100 / 104 40% 1 24.11.2026 -
Sonny Perkins Leyton Orient Ativo 84 / 100 40% 1 24.11.2026 -
Alexis Domínguez Chacarita Juniors Ativo 106 / 108 40% 2 23.11.2026 -
Fabricio Rojas Gimnasia y Tiro Ativo 107 / 115 40% 6 23.11.2026 -
Lucio Castillo Colegiales Ativo 113 / 107 40% 2 21.11.2026 -
Breel Embolo Atlanta United FC Ativo 147 / 133 40% 5 21.11.2026 -
Marcos Cuenca Zaragoza Ativo 104 / 122 40% 4 20.11.2026 -
Isaac Matondo Koper Ativo 98 / 90 40% 1 20.11.2026 -
Sebastián Ybares Neftekhimik Ativo 92 / 98 40% 1 17.11.2026 -
Mauro Rodrigues Botev Plovdiv Ativo 107 / 97 40% 1 16.11.2026 -
Ekain Orobengoa Real Sociedad Ativo 94 / 91 40% 3 14.11.2026 -
Lucas Angelini Temperley Ativo 120 / 116 40% 1 14.11.2026 -
Gilson Benchimol Akron Ativo 117 / 113 40% 1 14.11.2026 -
Facundo Pons San Martín Ativo 121 / 109 40% 1 14.11.2026 Mais informações
Alexandr Saplinov Volga Ativo 99 / 95 40% 1 10.11.2026 -
Johnly Yfeko Exeter City Ativo 102 / 103 40% 1 10.11.2026 -
Job Ochieng Real Sociedad Ativo 115 / 94 40% 3 08.11.2026 -
Eduardo Armenta Ufa Ativo 92 / 91 40% 1 07.11.2026 -
Kenan Dervišagić Floriana Ativo 108 / 103 40% 2 06.11.2026 -
Axel Pérez NK Domzale Ativo 96 / 114 40% 1 06.11.2026 -
Fabricio Oviedo Rosario Central Ativo 100 / 117 40% 1 04.11.2026 -
Stephen Humphrys Bradford City Ativo 102 / 96 40% 2 03.11.2026 -
Sergio Riffo NK Zavrc Ativo 104 / 103 40% 3 01.11.2026 -
Kamran Aliev SKA Khabarovsk Ativo 111 / 106 40% 1 30.10.2026 -
Jhon Flor Sokol Ativo 78 / 105 40% 1 30.10.2026 -
Rodrigo González Aldosivi Ativo 125 / 120 40% 1 30.10.2026 -
Juan Manuel Jorge Defensor Sporting Ativo 109 / 109 40% 1 30.10.2026 -
Julián Palacios Unión de Santa Fe Ativo 112 / 107 40% 2 29.10.2026 -
Esteven Salguero Patriotas Ativo 105 / 99 40% 2 28.10.2026 -
Camilo Rey Domenech Boca Juniors Ativo 113 / 131 40% 1 28.10.2026 -
Marcus Browne AFC Wimbledon Ativo 112 / 89 40% 2 27.10.2026 -
Mario García Racing Santander Ativo 114 / 128 40% 2 27.10.2026 -
Lautaro Ríos Banfield Ativo 110 / 119 40% 1 27.10.2026 -
Luka Kurtovic NK Domzale Ativo 121 / 113 40% 4 26.10.2026 -
Yeangel Montero Naxxar Lions Ativo 101 / 118 40% 1 26.10.2026 -
Aldahir Pérez Tijuana Ativo 102 / 122 40% 1 25.10.2026 -
Mauro Smarra Deportivo Riestra Ativo 106 / 108 40% 1 24.10.2026 -
Nahuel Gallardo San Martín Ativo 114 / 105 40% 1 24.10.2026 -
Milton Castagna Neftekhimik Ativo 104 / 91 40% 1 23.10.2026 -
Sam Nombe Milton Keynes Dons Ativo 119 / 99 40% 2 21.10.2026 -
Gaspar Duarte Rosario Central Ativo 114 / 115 40% 2 20.10.2026 -
Robert Murić Floriana Ativo 101 / 117 40% 1 20.10.2026 -
Diego Valencia Universidad Catolica Ativo 110 / 105 40% 3 19.10.2026 -
Martin Sekulić Ural Ativo 116 / 109 40% 3 19.10.2026 -
Milan Tučić ND Gorica Ativo 95 / 107 40% 1 19.10.2026 -
Gabriel Jesus Barcelona Ativo 165 / 162 40% 6 18.10.2026 -
Diego Méndez Tacuarembo Ativo 85 / 87 40% 5 17.10.2026 -
Ángel Stringa Deportivo Riestra Ativo 98 / 109 40% 4 17.10.2026 -
Facundo Pimienta Atlético Tucumán Ativo 89 / 101 40% 1 15.10.2026 -
Joaquín Rivero Instituto Ativo 87 / 92 40% 3 13.10.2026 -
Thiago Ponce Rosario Central Ativo 97 / 101 40% 1 12.10.2026 -
Ignacio Sabatini Gimnasia y Esgrima Ativo 100 / 109 40% 1 10.10.2026 -
Gorka Gorosabel Real Sociedad Ativo 99 / 130 40% 1 09.10.2026 -
Vladimir Khubulov Dinamo Makhachkala Ativo 104 / 123 40% 1 09.10.2026 -
Manprit Sarkaria Austria Wien Ativo 126 / 129 40% 1 08.10.2026 -
Luis Rojas Universidad de Concepcion Ativo 92 / 93 40% 2 02.10.2026 -
Cristhofer Mesías Universidad de Concepcion Ativo 95 / 109 40% 1 30.09.2026 -
Juan Salas Patronato Ativo 113 / 117 40% 1 30.09.2026 -
Mariano Bracamonte Deportivo Riestra Ativo 113 / 116 40% 2 29.09.2026 -
Kyle Joseph Middlesbrough Ativo 104 / 113 40% 2 26.09.2026 -
Bojan Radulović Huddersfield Town Ativo 117 / 101 40% 1 25.09.2026 -
Luca Babino Huracán Ativo 115 / 113 40% 1 25.09.2026 -
Amadou Diawara Leganés Ativo 112 / 122 40% 1 25.09.2026 -
Carlos Rosel Grodig Ativo 92 / 98 40% 1 23.09.2026 -
Lautaro Mora Huracán Ativo 102 / 121 40% 1 23.09.2026 -
Lewis McCann Fleetwood Town Ativo 98 / 102 40% 1 21.09.2026 -
Lautaro Quiroga Defensa y Justicia Ativo 97 / 108 40% 1 21.09.2026 -
Alexei Dominguez Pachuca Ativo 101 / 96 40% 1 17.09.2026 -
Tomás Orqueida Mattersburg Ativo 108 / 96 40% 1 17.09.2026 -
David Barrero Nizhniy Novgorod Ativo 95 / 83 40% 1 16.09.2026 -
Duván Mósquera Aguilas Doradas Ativo 111 / 108 40% 1 16.09.2026 -
Facundo Pérez Juventud Ativo 96 / 105 40% 1 15.09.2026 -
Lander Astiazarán Real Sociedad Ativo 113 / 111 40% 1 15.09.2026 -
Galo Galarza Estudiantes Ativo 91 / 96 40% 1 15.09.2026 -
Juan Román Zarza BK Hacken Ativo 90 / 88 40% 1 14.09.2026 -
Maximo Ingravidi Colón Ativo 95 / 113 40% 1 13.09.2026 -
Bruno Hernández Cerro Largo Ativo 91 / 97 40% 1 11.09.2026 -
Alexis Dulón Huracán Ativo 87 / 91 40% 1 11.09.2026 -
Tomás Romero Unión de Santa Fe Ativo 91 / 101 40% 1 11.09.2026 -
Agustín Páez Maipú Ativo 100 / 92 40% 2 01.09.2026 -
Cristhian Medina Dinamo Brest Ativo 86 / 88 40% 1 01.09.2026 -
Marcos Camarda Santiago Wanderers Ativo 100 / 104 40% 4 31.08.2026 -
Agustín Zabaleta Chaco For Ever Ativo 95 / 88 40% 1 31.08.2026 -
Gonzalo Tapia Palestino Ativo 100 / 101 40% 1 31.08.2026 -
Agustín Fernández NK Zavrc Ativo 84 / 92 40% 1 30.08.2026 -
Richard Celis Zamora Ativo 100 / 117 40% 1 30.08.2026 -
Jandro Orellana Cádiz Ativo 118 / 104 40% 1 30.08.2026 -
Gonzalo Larrazábal Deportivo Maldonado Ativo 94 / 90 40% 1 28.08.2026 -
Gonzalo Aguirre Cienciano Ativo 93 / 96 40% 1 28.08.2026 -
Jeriel De Santis Caracas Ativo 99 / 95 40% 1 27.08.2026 -
Adalberto Peñaranda Deportivo Tachira Ativo 113 / 105 40% 2 26.08.2026 -
Martín Garnerone Estudiantes Ativo 120 / 110 40% 1 26.08.2026 -
Junior Paredes Trujillanos Ativo 92 / 107 40% 1 25.08.2026 -
Kavier Ortiz Metropolitanos Ativo 99 / 103 40% 1 25.08.2026 -
Francisco Galván Deportivo Municipal Ativo 103 / 99 40% 2 18.08.2026 -
Tadeo Polli San Martín Ativo 92 / 88 40% 1 18.08.2026 -
Tobías Bovone Deportivo Pereira Ativo 114 / 109 40% 1 16.08.2026 -
Gerónimo Tomasetti Temperley Ativo 112 / 115 40% 1 16.08.2026 -
Tomás Galván River Plate Ativo 118 / 115 40% 1 15.08.2026 -
Franco Sivetti Gimnasia y Tiro Ativo 113 / 102 40% 1 15.08.2026 -
Jules-Anthony Vilsaint Toronto FC Ativo 106 / 105 40% 1 12.08.2026 -
Ramiro Ruiz Rodríguez Atlético Tucumán Ativo 125 / 112 40% 1 11.08.2026 -
Bruno Gomes Valletta Ativo 85 / 108 40% 1 10.08.2026 -
Hakeeb Adelakun Doncaster Rovers Ativo 98 / 117 40% 1 10.08.2026 -
Joaquín Zappacosta Morón Ativo 86 / 87 40% 1 09.08.2026 -
Cristian Núñez Huracán Ativo 107 / 114 40% 1 06.08.2026 -
Jano Franco Independiente Rivadavia Ativo 92 / 82 40% 1 06.08.2026 -
Jeremy Rafanello Philadelphia Union Ativo 93 / 101 40% 1 05.08.2026 -
Alassana Jatta Notts County Ativo 105 / 119 40% 2 04.08.2026 -
Elías Ovelar Dinamo Brest Ativo 96 / 83 40% 1 04.08.2026 -
Martín Pino Godoy Cruz Ativo 114 / 106 40% 1 02.08.2026 -
Joe Abrigo Palestino Ativo 118 / 115 40% 1 02.08.2026 -
David Barbona Defensa y Justicia Ativo 120 / 113 40% 1 01.08.2026 -
Pablo Durán Celta Ativo 124 / 122 40% 1 01.08.2026 -